LGRP/RHO METAR and TAF weather

Enter ICAO airport designator
Station Type Date Time Source
LGRP METAR 2019/10/15 03:20 UTC NOAA

LGRP 150320Z 23008KT 9999 FEW012 21/20 Q1015 NOSIG


Station Type Date Time Source
LGRP Decoded METAR 2019/10/15 03:20 UTC NOAA

Rhodes Airport , Greece (LGRP) 36-24N 028-05E 11M
Oct 14, 2019 - 11:20 PM EDT / 2019.10.15 0320 UTC
Wind: from the SW (230 degrees) at 9 MPH (8 KT):0
Visibility: greater than 7 mile(s):0
Sky conditions: mostly clear
Temperature: 69 F (21 C)
Dew Point: 68 F (20 C)
Relative Humidity: 94%
Pressure (altimeter): 29.97 in. Hg (1015 hPa)
ob: LGRP 150320Z 23008KT 9999 FEW012 21/20 Q1015 NOSIG
cycle: 3

Station Type Date Time Source
LGRP TAF 2019/10/14 18:14 UTC NOAA

TAF LGRP 141700Z 1418/1518 26010KT 9999 FEW020

Example: see airport list